Time;durP1;ratioP1;P1;durP2;ratioP2;P2;SDS_P1;SDS_P2;PMS_P1;PMS_P2;Temp;Humidity;BMP_temperature;BMP_pressure;BME280_temperature;BME280_humidity;BME280_pressure;Samples;Min_cycle;Max_cycle;Signal;HPM_P1;HPM_P2
2023/01/22 00:01:24;;;;;;;10.67;7.73;;;8.80;99.90;;;;;;5040557;28;20226;-72
2023/01/22 00:03:53;;;;;;;13.13;7.70;;;8.70;99.90;;;;;;5025946;28;20195;-72
2023/01/22 00:06:20;;;;;;;9.10;7.33;;;8.70;99.90;;;;;;5047158;28;20687;-72
2023/01/22 00:08:53;;;;;;;12.73;8.00;;;8.70;99.90;;;;;;5042309;28;20186;-72
2023/01/22 00:11:19;;;;;;;9.13;6.93;;;8.60;99.90;;;;;;5043198;28;20222;-72
2023/01/22 00:13:46;;;;;;;15.03;6.90;;;8.60;99.90;;;;;;5052929;28;21003;-72
2023/01/22 00:16:17;;;;;;;10.47;7.30;;;8.60;99.90;;;;;;5046521;28;20195;-72
2023/01/22 00:18:44;;;;;;;10.57;7.17;;;8.60;99.90;;;;;;5043940;28;20711;-72
2023/01/22 00:21:12;;;;;;;10.03;7.90;;;8.60;99.90;;;;;;5046411;28;20215;-72
2023/01/22 00:23:39;;;;;;;9.53;7.50;;;8.60;99.90;;;;;;5049119;28;20273;-72
2023/01/22 00:26:12;;;;;;;11.20;7.40;;;8.60;99.90;;;;;;5047246;28;20667;-72
2023/01/22 00:28:42;;;;;;;11.13;7.17;;;8.60;99.90;;;;;;5029976;28;20187;-72
2023/01/22 00:31:11;;;;;;;11.80;7.40;;;8.50;99.90;;;;;;5047046;28;20551;-72
2023/01/22 00:33:41;;;;;;;9.53;7.40;;;8.60;99.90;;;;;;5041610;28;20228;-72
2023/01/22 00:36:17;;;;;;;13.17;7.47;;;8.50;99.90;;;;;;5043830;28;20202;-72
2023/01/22 00:38:48;;;;;;;13.30;7.60;;;8.50;99.90;;;;;;5039596;28;20188;-72
2023/01/22 00:41:18;;;;;;;12.30;7.97;;;8.60;99.90;;;;;;5050783;28;20261;-72
2023/01/22 00:43:45;;;;;;;11.90;7.80;;;8.60;99.90;;;;;;5047245;28;20591;-72
2023/01/22 00:46:15;;;;;;;14.07;7.23;;;8.60;99.90;;;;;;5026341;28;20184;-72
2023/01/22 00:48:50;;;;;;;11.70;7.00;;;8.60;99.90;;;;;;5041177;28;20184;-72
2023/01/22 00:51:18;;;;;;;11.67;6.83;;;8.60;99.90;;;;;;5045253;28;20191;-72
2023/01/22 00:53:45;;;;;;;9.10;5.90;;;8.60;99.90;;;;;;5038173;28;20658;-72
2023/01/22 00:56:13;;;;;;;12.17;6.20;;;8.60;99.90;;;;;;5046340;28;20184;-72
2023/01/22 00:58:41;;;;;;;8.53;5.37;;;8.50;99.90;;;;;;5044849;28;20203;-72
2023/01/22 01:01:11;;;;;;;8.93;6.00;;;8.60;99.90;;;;;;5048666;28;20323;-72
2023/01/22 01:03:37;;;;;;;7.90;5.53;;;8.60;99.90;;;;;;5046104;28;20245;-72
2023/01/22 01:06:18;;;;;;;7.53;5.20;;;8.50;99.90;;;;;;5051601;28;20257;-72
2023/01/22 01:08:48;;;;;;;8.50;5.63;;;8.50;99.90;;;;;;5029025;28;20228;-72
2023/01/22 01:11:20;;;;;;;6.47;5.17;;;8.40;99.90;;;;;;5044426;28;21062;-72
2023/01/22 01:13:48;;;;;;;7.07;5.27;;;8.30;99.90;;;;;;5047232;28;20194;-72
2023/01/22 01:16:22;;;;;;;11.20;6.10;;;8.30;99.90;;;;;;5037431;28;20211;-72
2023/01/22 01:18:49;;;;;;;8.30;6.27;;;8.30;99.90;;;;;;5030411;28;20231;-72
2023/01/22 01:21:16;;;;;;;10.67;6.73;;;8.20;99.90;;;;;;5040854;28;20219;-72
2023/01/22 01:23:43;;;;;;;10.87;6.87;;;8.20;99.90;;;;;;5045808;28;20837;-72
2023/01/22 01:26:13;;;;;;;10.03;6.43;;;8.20;99.90;;;;;;5039187;28;20246;-72
2023/01/22 01:28:44;;;;;;;9.87;7.07;;;8.10;99.90;;;;;;5045238;28;20187;-72
2023/01/22 01:31:14;;;;;;;8.33;6.57;;;8.10;99.90;;;;;;5041452;28;20583;-72
2023/01/22 01:33:41;;;;;;;10.70;6.77;;;8.10;99.90;;;;;;5045396;28;20179;-73
2023/01/22 01:36:12;;;;;;;9.40;6.40;;;8.10;99.90;;;;;;5045319;28;20188;-73
2023/01/22 01:38:38;;;;;;;9.03;6.23;;;8.10;99.90;;;;;;5041577;28;20840;-73
2023/01/22 01:41:07;;;;;;;8.83;6.07;;;8.10;99.90;;;;;;5043833;28;20255;-72
2023/01/22 01:43:34;;;;;;;10.27;6.10;;;8.10;99.90;;;;;;5024106;28;20183;-72
2023/01/22 01:46:03;;;;;;;13.27;6.17;;;8.10;99.90;;;;;;5041795;28;20238;-72
2023/01/22 01:48:40;;;;;;;9.07;6.33;;;8.00;99.90;;;;;;5017121;28;20727;-73
2023/01/22 01:51:27;;;;;;;10.33;6.10;;;8.00;99.90;;;;;;5031260;28;20287;-72
2023/01/22 01:53:58;;;;;;;10.37;6.30;;;7.90;99.90;;;;;;5058430;28;20198;-72
2023/01/22 01:56:36;;;;;;;10.33;6.43;;;7.90;99.90;;;;;;5040532;28;20191;-73
2023/01/22 01:59:12;;;;;;;10.57;6.73;;;7.80;99.90;;;;;;5041370;28;20252;-72
2023/01/22 02:01:44;;;;;;;9.70;7.13;;;7.90;99.90;;;;;;5041526;28;20187;-72
2023/01/22 02:04:15;;;;;;;10.93;7.30;;;7.90;99.90;;;;;;5045094;28;20194;-72
2023/01/22 02:06:42;;;;;;;10.77;7.90;;;8.00;99.90;;;;;;5045167;28;20280;-72
2023/01/22 02:09:10;;;;;;;10.47;8.40;;;7.90;99.90;;;;;;5046973;28;20563;-72
2023/01/22 02:11:39;;;;;;;14.27;8.93;;;7.90;99.90;;;;;;5046054;28;20214;-72
2023/01/22 02:14:15;;;;;;;16.13;9.20;;;7.90;99.90;;;;;;5049424;28;20187;-72
2023/01/22 02:16:42;;;;;;;14.53;9.40;;;7.90;99.90;;;;;;5033885;28;20256;-73
2023/01/22 02:19:11;;;;;;;13.47;8.93;;;7.90;99.90;;;;;;5038349;28;20196;-72
2023/01/22 02:21:43;;;;;;;13.20;10.07;;;7.90;99.90;;;;;;5025919;28;20208;-73
2023/01/22 02:24:16;;;;;;;15.03;9.47;;;7.90;99.90;;;;;;5040796;28;20740;-73
2023/01/22 02:26:51;;;;;;;15.30;9.67;;;7.90;99.90;;;;;;5044808;28;20267;-73
2023/01/22 02:29:20;;;;;;;15.67;9.20;;;7.90;99.90;;;;;;5043859;28;20203;-72
2023/01/22 02:31:48;;;;;;;13.20;9.77;;;7.90;99.90;;;;;;5040387;28;20261;-72
2023/01/22 02:34:14;;;;;;;14.77;9.53;;;7.90;99.90;;;;;;5050424;28;20274;-73
2023/01/22 02:36:41;;;;;;;14.73;9.80;;;7.90;99.90;;;;;;5002806;28;20226;-73
2023/01/22 02:39:07;;;;;;;12.40;10.07;;;7.90;99.90;;;;;;5036458;28;20256;-73
2023/01/22 02:41:33;;;;;;;15.47;9.80;;;7.90;99.90;;;;;;5046004;28;20250;-73
2023/01/22 02:44:00;;;;;;;14.90;10.40;;;7.90;99.90;;;;;;5033197;28;20187;-73
2023/01/22 02:46:27;;;;;;;15.67;10.10;;;7.90;99.90;;;;;;5041233;28;20206;-73
2023/01/22 02:48:56;;;;;;;17.03;10.63;;;7.90;99.90;;;;;;5064290;28;20184;-73
2023/01/22 02:51:25;;;;;;;12.70;9.60;;;7.90;99.90;;;;;;5036254;28;20183;-71
2023/01/22 02:53:52;;;;;;;16.27;9.87;;;7.90;99.90;;;;;;5045118;28;20191;-71
2023/01/22 02:56:19;;;;;;;16.40;9.53;;;7.80;99.90;;;;;;5034109;28;20625;-71
2023/01/22 02:58:46;;;;;;;13.87;9.20;;;7.80;99.90;;;;;;5043119;28;20244;-71
2023/01/22 03:01:29;;;;;;;16.63;9.07;;;7.80;99.90;;;;;;5043909;28;20220;-71
2023/01/22 03:04:00;;;;;;;12.17;8.20;;;7.80;99.90;;;;;;5041856;28;20191;-71
2023/01/22 03:06:29;;;;;;;12.63;8.30;;;7.80;99.90;;;;;;5040422;28;20762;-71
2023/01/22 03:08:59;;;;;;;11.13;8.13;;;7.70;99.90;;;;;;5046823;28;20239;-71
2023/01/22 03:11:30;;;;;;;17.63;8.87;;;7.70;99.90;;;;;;5044966;28;20330;-71
2023/01/22 03:22:15;;;;;;;10.97;7.63;;;7.70;99.90;;;;;;5045373;28;20171;-71
2023/01/22 03:24:43;;;;;;;11.50;7.80;;;7.60;99.90;;;;;;5038476;28;20214;-71
2023/01/22 03:27:10;;;;;;;13.07;7.77;;;7.70;99.90;;;;;;5029070;28;20278;-71
2023/01/22 03:29:37;;;;;;;11.47;7.73;;;7.70;99.90;;;;;;5046979;28;20179;-72
2023/01/22 03:32:06;;;;;;;8.93;7.07;;;7.60;99.90;;;;;;5046114;28;20187;-72
2023/01/22 03:34:34;;;;;;;14.27;7.53;;;7.60;99.90;;;;;;5048900;28;20198;-72
2023/01/22 03:37:02;;;;;;;10.90;7.10;;;7.60;99.90;;;;;;5042283;28;20187;-72
2023/01/22 03:39:32;;;;;;;10.63;7.60;;;7.60;99.90;;;;;;5044674;28;20187;-72
2023/01/22 03:42:00;;;;;;;11.83;8.20;;;7.60;99.90;;;;;;5043705;28;21140;-71
2023/01/22 03:44:28;;;;;;;11.80;7.10;;;7.60;99.90;;;;;;5066773;28;20849;-71
2023/01/22 03:46:56;;;;;;;11.53;7.80;;;7.60;99.90;;;;;;5041036;28;20190;-72
2023/01/22 03:49:22;;;;;;;10.00;7.37;;;7.60;99.90;;;;;;5014035;28;20205;-72
2023/01/22 03:51:49;;;;;;;9.27;6.70;;;7.60;99.90;;;;;;5049365;28;20192;-72
2023/01/22 03:54:17;;;;;;;13.43;7.57;;;7.60;99.90;;;;;;5041152;28;20928;-72
2023/01/22 03:56:44;;;;;;;10.53;6.90;;;7.60;99.90;;;;;;5048955;28;20859;-71
2023/01/22 03:59:18;;;;;;;11.00;6.90;;;7.50;99.90;;;;;;5024489;28;20704;-71
2023/01/22 04:01:45;;;;;;;10.67;5.90;;;7.50;99.90;;;;;;5051749;28;20750;-71
2023/01/22 04:04:11;;;;;;;10.40;6.90;;;7.40;99.90;;;;;;5043374;28;20544;-71
2023/01/22 04:06:38;;;;;;;9.27;6.77;;;7.40;99.90;;;;;;5018851;28;20200;-71
2023/01/22 04:09:05;;;;;;;9.80;6.87;;;7.50;99.90;;;;;;5027270;28;20198;-71
2023/01/22 04:11:36;;;;;;;9.93;6.17;;;7.40;99.90;;;;;;5048710;28;20183;-71
2023/01/22 04:14:02;;;;;;;9.77;6.13;;;7.40;99.90;;;;;;5042706;28;20223;-71
2023/01/22 04:16:31;;;;;;;9.80;6.33;;;7.40;99.90;;;;;;5043973;28;20180;-71
2023/01/22 04:18:57;;;;;;;8.20;6.07;;;7.40;99.90;;;;;;5040860;28;20265;-71
2023/01/22 04:21:24;;;;;;;8.50;5.90;;;7.40;99.90;;;;;;5046696;28;20223;-71
2023/01/22 04:23:50;;;;;;;9.60;6.27;;;7.40;99.90;;;;;;5046491;28;20199;-71
2023/01/22 04:26:23;;;;;;;11.77;6.30;;;7.40;99.90;;;;;;5049505;28;20179;-71
2023/01/22 04:28:49;;;;;;;10.50;6.23;;;7.30;99.90;;;;;;5037489;28;20277;-71
2023/01/22 04:31:16;;;;;;;10.95;6.70;;;7.30;99.90;;;;;;5041026;28;20812;-71
2023/01/22 04:33:42;;;;;;;8.73;5.90;;;7.30;99.90;;;;;;5047456;28;20733;-71
2023/01/22 04:36:11;;;;;;;10.77;5.70;;;7.30;99.90;;;;;;5044261;28;20238;-71
2023/01/22 04:38:37;;;;;;;5.83;4.73;;;7.30;99.90;;;;;;5047003;28;20179;-71
2023/01/22 04:41:04;;;;;;;6.67;4.93;;;7.30;99.90;;;;;;5054401;28;20714;-72
2023/01/22 04:43:31;;;;;;;7.30;4.40;;;7.30;99.90;;;;;;5046936;28;20561;-71
2023/01/22 04:45:58;;;;;;;6.53;4.50;;;7.30;99.90;;;;;;5053840;28;20188;-71
2023/01/22 04:48:24;;;;;;;8.87;4.00;;;7.30;99.90;;;;;;5051391;28;20494;-71
2023/01/22 04:50:50;;;;;;;7.50;4.63;;;7.30;99.90;;;;;;5042404;28;20188;-71
2023/01/22 04:53:16;;;;;;;5.27;3.77;;;7.30;99.90;;;;;;5059538;28;20266;-72
2023/01/22 04:55:43;;;;;;;6.60;3.73;;;7.30;99.90;;;;;;5049811;28;20245;-72
2023/01/22 04:58:16;;;;;;;6.50;3.70;;;7.30;99.90;;;;;;5053767;28;20305;-71
2023/01/22 05:00:45;;;;;;;7.17;3.90;;;7.30;99.90;;;;;;5031279;28;20314;-71
2023/01/22 05:03:14;;;;;;;5.80;3.67;;;7.30;99.90;;;;;;5045720;28;20223;-72
2023/01/22 05:05:40;;;;;;;6.73;3.40;;;7.20;99.90;;;;;;5043627;28;20191;-72
2023/01/22 05:08:06;;;;;;;5.47;3.73;;;7.20;99.90;;;;;;5027796;28;20267;-71
2023/01/22 05:10:33;;;;;;;6.50;3.43;;;7.20;99.90;;;;;;5035810;28;20738;-71
2023/01/22 05:13:10;;;;;;;5.67;3.70;;;7.20;99.90;;;;;;5046397;28;20486;-72
2023/01/22 05:15:39;;;;;;;5.03;3.30;;;7.20;99.90;;;;;;5044342;28;20248;-71
2023/01/22 05:18:08;;;;;;;4.63;3.13;;;7.20;99.90;;;;;;5052368;28;20263;-71
2023/01/22 05:20:35;;;;;;;5.33;4.00;;;7.20;99.90;;;;;;5049768;28;20211;-72
2023/01/22 05:23:02;;;;;;;8.63;4.17;;;7.20;99.90;;;;;;5029648;28;20787;-71
2023/01/22 05:25:29;;;;;;;9.20;3.80;;;7.30;99.90;;;;;;5037006;28;20899;-72
2023/01/22 05:27:55;;;;;;;5.33;3.60;;;7.30;99.90;;;;;;5030308;28;20742;-71
2023/01/22 05:30:23;;;;;;;6.87;3.60;;;7.30;99.90;;;;;;5033340;28;20214;-72
2023/01/22 05:32:57;;;;;;;6.23;3.50;;;7.30;99.90;;;;;;5036748;28;20192;-72
2023/01/22 05:35:29;;;;;;;5.27;3.63;;;7.40;99.90;;;;;;5042117;28;20652;-72
2023/01/22 05:37:58;;;;;;;8.37;3.50;;;7.40;99.90;;;;;;5046232;28;20196;-71
2023/01/22 05:40:29;;;;;;;5.30;3.30;;;7.40;99.90;;;;;;5058666;28;20260;-72
2023/01/22 05:42:59;;;;;;;4.97;3.50;;;7.40;99.90;;;;;;5044028;28;20262;-72
2023/01/22 05:45:25;;;;;;;5.80;3.73;;;7.40;99.90;;;;;;5039638;28;20199;-72
2023/01/22 05:47:54;;;;;;;3.73;2.90;;;7.40;99.90;;;;;;5045332;28;20191;-71
2023/01/22 05:50:29;;;;;;;5.63;3.23;;;7.40;99.90;;;;;;5031098;28;20688;-71
2023/01/22 05:52:58;;;;;;;6.87;3.30;;;7.50;99.90;;;;;;5039888;28;20198;-71
2023/01/22 05:55:24;;;;;;;5.10;3.17;;;7.50;99.90;;;;;;5048187;28;20590;-71
2023/01/22 05:57:51;;;;;;;4.70;2.93;;;7.50;99.90;;;;;;5050661;28;20187;-71
2023/01/22 06:00:18;;;;;;;3.93;2.83;;;7.50;99.90;;;;;;5039866;28;20476;-71
2023/01/22 06:02:44;;;;;;;6.47;3.33;;;7.50;99.90;;;;;;5045691;28;20188;-71
2023/01/22 06:05:12;;;;;;;6.17;3.30;;;7.50;99.90;;;;;;5034386;28;20671;-72
2023/01/22 06:07:45;;;;;;;5.27;3.10;;;7.60;99.90;;;;;;5046020;28;20204;-71
2023/01/22 06:10:11;;;;;;;5.00;3.40;;;7.60;99.90;;;;;;5026653;28;20386;-71
2023/01/22 06:12:38;;;;;;;5.77;3.30;;;7.70;99.90;;;;;;5040561;28;20179;-72
2023/01/22 06:15:05;;;;;;;4.67;2.90;;;7.80;99.90;;;;;;5040669;28;20191;-72
2023/01/22 06:17:31;;;;;;;6.37;3.17;;;7.90;99.90;;;;;;5044730;28;20193;-72
2023/01/22 06:19:57;;;;;;;9.10;3.10;;;8.00;99.90;;;;;;5043760;28;20598;-72
2023/01/22 06:22:26;;;;;;;4.43;2.87;;;8.10;99.90;;;;;;5048127;28;20236;-72
2023/01/22 06:24:54;;;;;;;13.67;3.43;;;8.20;99.90;;;;;;5045691;28;20268;-72
2023/01/22 06:27:21;;;;;;;4.23;3.17;;;8.30;99.90;;;;;;5028781;28;20689;-72
2023/01/22 06:29:50;;;;;;;4.77;2.93;;;8.30;99.90;;;;;;5040987;28;20283;-71
2023/01/22 06:32:16;;;;;;;4.00;3.13;;;8.40;99.90;;;;;;5039306;28;20188;-72
2023/01/22 06:34:43;;;;;;;8.00;3.60;;;8.50;99.90;;;;;;5058636;28;20810;-72
2023/01/22 06:37:09;;;;;;;5.67;3.37;;;8.60;99.90;;;;;;5040851;28;20261;-71
2023/01/22 06:39:38;;;;;;;3.87;3.00;;;8.70;99.90;;;;;;5029600;28;20206;-72
2023/01/22 06:42:05;;;;;;;8.23;3.30;;;8.80;99.90;;;;;;5041926;28;20181;-71
2023/01/22 06:44:33;;;;;;;6.60;3.60;;;8.90;99.90;;;;;;5044717;28;20176;-72
2023/01/22 06:47:03;;;;;;;4.43;3.30;;;8.90;99.90;;;;;;5044958;28;20194;-72
2023/01/22 06:49:29;;;;;;;3.87;3.10;;;9.00;99.90;;;;;;5045992;28;20293;-71
2023/01/22 06:51:56;;;;;;;6.17;3.30;;;9.10;99.90;;;;;;5035729;28;20184;-71
2023/01/22 06:54:22;;;;;;;5.73;3.43;;;9.20;99.90;;;;;;5044640;28;20810;-71
2023/01/22 06:56:48;;;;;;;5.73;3.20;;;9.30;99.90;;;;;;5042046;28;20656;-72
2023/01/22 06:59:15;;;;;;;6.20;3.40;;;9.40;99.90;;;;;;5037997;28;20262;-71
2023/01/22 07:01:41;;;;;;;5.53;3.50;;;9.50;99.90;;;;;;5024264;28;20329;-71
2023/01/22 07:04:10;;;;;;;5.73;3.67;;;9.50;99.90;;;;;;5037980;28;20192;-71
2023/01/22 07:06:41;;;;;;;4.97;3.30;;;9.60;99.90;;;;;;5026095;28;20192;-71
2023/01/22 07:09:08;;;;;;;6.17;3.37;;;9.70;99.90;;;;;;5041997;28;20187;-71
2023/01/22 07:11:35;;;;;;;4.10;3.30;;;9.80;99.90;;;;;;5047938;28;20191;-72
2023/01/22 07:14:01;;;;;;;4.50;3.50;;;9.80;99.90;;;;;;5043130;28;20203;-71
2023/01/22 07:16:34;;;;;;;4.83;3.60;;;9.90;99.90;;;;;;5042610;28;20200;-71
2023/01/22 07:19:06;;;;;;;6.50;3.60;;;10.00;99.90;;;;;;5062281;28;20207;-71
2023/01/22 07:21:32;;;;;;;7.03;3.77;;;10.00;99.90;;;;;;5050530;28;20219;-71
2023/01/22 07:24:01;;;;;;;8.73;4.23;;;10.00;99.90;;;;;;5027647;28;20595;-71
2023/01/22 07:26:29;;;;;;;6.50;4.13;;;10.00;99.90;;;;;;5050501;28;20316;-71
2023/01/22 07:28:56;;;;;;;5.47;3.60;;;10.10;99.90;;;;;;5045711;28;20225;-71
2023/01/22 07:31:22;;;;;;;5.47;3.83;;;10.10;99.90;;;;;;5048396;28;20275;-71
2023/01/22 07:33:49;;;;;;;8.03;3.57;;;10.20;99.90;;;;;;5045361;28;20196;-71
2023/01/22 07:36:16;;;;;;;7.90;3.57;;;10.30;99.90;;;;;;5054456;28;20279;-71
2023/01/22 07:38:43;;;;;;;6.23;3.90;;;10.30;99.90;;;;;;5026104;28;20663;-71
2023/01/22 07:41:09;;;;;;;7.87;3.67;;;10.40;99.90;;;;;;5029966;28;20216;-72
2023/01/22 07:43:37;;;;;;;4.80;3.30;;;10.40;99.90;;;;;;5036533;28;20252;-72
2023/01/22 07:46:09;;;;;;;7.03;3.53;;;10.40;99.90;;;;;;5049507;28;20198;-72
2023/01/22 07:48:36;;;;;;;14.93;4.03;;;10.50;99.90;;;;;;5047592;28;20253;-72
2023/01/22 07:51:05;;;;;;;5.63;3.77;;;10.60;99.90;;;;;;5027452;28;20199;-71
2023/01/22 07:53:34;;;;;;;5.63;3.57;;;10.60;99.90;;;;;;5056857;28;20252;-71
2023/01/22 07:56:05;;;;;;;6.67;3.70;;;10.70;99.90;;;;;;5047664;28;20203;-71
2023/01/22 07:58:31;;;;;;;5.47;3.33;;;10.70;99.90;;;;;;5047836;28;20651;-71
2023/01/22 08:00:58;;;;;;;7.43;4.00;;;10.80;99.90;;;;;;5050283;28;20254;-71
2023/01/22 08:03:24;;;;;;;5.03;3.60;;;10.80;99.90;;;;;;5042468;28;20274;-71
2023/01/22 08:05:50;;;;;;;7.27;3.80;;;10.80;99.90;;;;;;5041336;28;20214;-71
2023/01/22 08:08:22;;;;;;;6.77;4.07;;;10.90;99.90;;;;;;5050317;28;20199;-71
2023/01/22 08:10:49;;;;;;;6.20;3.23;;;10.90;99.90;;;;;;5033993;28;20195;-71
2023/01/22 08:13:16;;;;;;;7.93;3.60;;;10.90;99.90;;;;;;5017684;28;20999;-71
2023/01/22 08:15:45;;;;;;;6.60;3.87;;;10.80;99.90;;;;;;5037649;28;20275;-71
2023/01/22 08:18:11;;;;;;;6.77;3.90;;;10.90;99.90;;;;;;5041839;28;20214;-71
2023/01/22 08:20:38;;;;;;;6.57;4.07;;;10.90;99.90;;;;;;5041496;28;20223;-71
2023/01/22 08:23:04;;;;;;;5.87;3.83;;;10.90;99.90;;;;;;5050373;28;20223;-71
2023/01/22 08:25:30;;;;;;;6.13;4.40;;;10.90;99.90;;;;;;5041191;28;20192;-71
2023/01/22 08:28:03;;;;;;;6.03;4.00;;;11.00;99.90;;;;;;5041045;28;20203;-71
2023/01/22 08:30:36;;;;;;;7.87;3.97;;;11.00;99.90;;;;;;5041832;28;20644;-71
2023/01/22 08:33:02;;;;;;;6.07;4.13;;;11.00;99.90;;;;;;5028106;28;20580;-71
2023/01/22 08:35:31;;;;;;;9.50;4.67;;;11.10;99.90;;;;;;5035690;28;20205;-71
2023/01/22 08:38:01;;;;;;;7.47;4.60;;;11.10;99.90;;;;;;5042700;28;20209;-71
2023/01/22 08:40:28;;;;;;;9.03;4.63;;;11.20;99.90;;;;;;5040353;28;20219;-71
2023/01/22 08:42:55;;;;;;;12.63;4.60;;;11.20;99.90;;;;;;5043226;28;20223;-72
2023/01/22 08:45:22;;;;;;;11.03;4.33;;;11.30;99.90;;;;;;5041591;28;20282;-71
2023/01/22 08:47:50;;;;;;;7.23;4.90;;;11.30;99.90;;;;;;5041713;28;20460;-71
2023/01/22 08:50:17;;;;;;;8.70;3.90;;;11.40;99.90;;;;;;5036334;28;20533;-71
2023/01/22 08:52:46;;;;;;;7.33;3.63;;;11.50;99.90;;;;;;5034480;28;20237;-71
2023/01/22 08:55:19;;;;;;;6.37;3.43;;;11.50;99.90;;;;;;5045544;28;20278;-71
2023/01/22 08:57:53;;;;;;;5.77;3.07;;;11.50;99.90;;;;;;5022537;28;20199;-71
2023/01/22 09:00:20;;;;;;;4.97;2.90;;;11.60;99.90;;;;;;5039407;28;20655;-71
2023/01/22 09:02:46;;;;;;;7.20;3.40;;;11.60;99.90;;;;;;5034920;28;20266;-71
2023/01/22 09:05:13;;;;;;;5.40;3.03;;;11.70;99.90;;;;;;5036601;28;20278;-71
2023/01/22 09:07:44;;;;;;;6.47;2.90;;;11.70;99.90;;;;;;5033924;28;20269;-71
2023/01/22 09:10:11;;;;;;;6.17;2.93;;;11.80;99.90;;;;;;5033983;28;20266;-71
2023/01/22 09:12:39;;;;;;;8.50;3.30;;;11.80;99.90;;;;;;5036622;28;20191;-71
2023/01/22 09:15:07;;;;;;;8.40;3.27;;;11.90;99.90;;;;;;5022880;28;20203;-71
2023/01/22 09:17:36;;;;;;;6.67;2.97;;;11.90;99.90;;;;;;5053433;28;20209;-71
2023/01/22 09:20:03;;;;;;;6.07;3.40;;;12.00;99.90;;;;;;5028444;28;20215;-71
2023/01/22 09:22:29;;;;;;;9.27;3.23;;;12.10;99.90;;;;;;5029949;28;20694;-72
2023/01/22 09:24:55;;;;;;;4.03;3.00;;;12.30;99.90;;;;;;5035065;28;20551;-72
2023/01/22 09:27:22;;;;;;;6.07;3.10;;;12.40;99.90;;;;;;5043735;28;20192;-71
2023/01/22 09:29:49;;;;;;;5.97;3.50;;;12.50;99.90;;;;;;5023737;28;20282;-71
2023/01/22 09:32:15;;;;;;;10.17;4.90;;;12.50;99.90;;;;;;5038304;28;20183;-71
2023/01/22 09:34:43;;;;;;;14.37;8.07;;;12.60;99.90;;;;;;5045676;28;20198;-72
2023/01/22 09:37:13;;;;;;;15.83;7.37;;;12.60;99.90;;;;;;5051946;28;20194;-71
2023/01/22 09:39:41;;;;;;;17.03;6.20;;;12.80;99.90;;;;;;5036074;28;20862;-72
2023/01/22 09:42:17;;;;;;;8.97;5.17;;;12.90;99.90;;;;;;5043013;28;20249;-72
2023/01/22 09:44:50;;;;;;;9.23;3.57;;;12.90;99.90;;;;;;5044230;28;20188;-72
2023/01/22 09:47:36;;;;;;;7.27;4.27;;;13.00;99.90;;;;;;5043900;28;20286;-71
2023/01/22 09:50:08;;;;;;;6.43;4.20;;;13.10;99.90;;;;;;5052971;28;20799;-71
2023/01/22 09:52:38;;;;;;;7.97;3.93;;;13.00;99.90;;;;;;5046140;28;20603;-71
2023/01/22 09:55:14;;;;;;;6.63;3.80;;;13.10;99.90;;;;;;5045759;28;20182;-71
2023/01/22 09:57:46;;;;;;;5.03;3.60;;;13.10;99.90;;;;;;5042270;28;20218;-72
2023/01/22 10:00:23;;;;;;;7.07;3.57;;;13.20;99.90;;;;;;5033945;28;20216;-71
2023/01/22 10:03:02;;;;;;;6.13;3.60;;;13.10;99.90;;;;;;5034255;28;20261;-71
2023/01/22 10:05:41;;;;;;;6.77;3.47;;;13.20;99.90;;;;;;5037939;28;20195;-71
2023/01/22 10:08:30;;;;;;;5.10;3.30;;;13.30;99.90;;;;;;5017355;28;20207;-72
2023/01/22 10:11:02;;;;;;;8.17;3.73;;;13.40;99.90;;;;;;5045794;28;20927;-72
2023/01/22 10:13:35;;;;;;;5.13;3.23;;;13.50;99.90;;;;;;5044090;28;20206;-72
2023/01/22 10:16:02;;;;;;;4.07;3.20;;;13.40;99.90;;;;;;5021773;28;20187;-71
2023/01/22 10:19:00;;;;;;;5.53;3.50;;;13.40;99.90;;;;;;5039447;28;20680;-72
2023/01/22 10:21:33;;;;;;;7.50;3.57;;;13.50;99.90;;;;;;5047162;28;20224;-71
2023/01/22 10:24:03;;;;;;;9.43;3.30;;;13.50;99.90;;;;;;5040837;28;20221;-71
2023/01/22 10:26:34;;;;;;;7.13;3.27;;;13.60;99.90;;;;;;5045504;28;20187;-71
2023/01/22 10:29:35;;;;;;;7.20;3.43;;;13.70;99.90;;;;;;5042568;28;20214;-72
2023/01/22 10:32:25;;;;;;;9.10;4.47;;;13.80;99.90;;;;;;5037458;28;20639;-72
2023/01/22 10:35:27;;;;;;;8.57;4.70;;;14.00;99.90;;;;;;5042317;28;20242;-72
2023/01/22 10:37:55;;;;;;;5.90;3.80;;;14.10;99.90;;;;;;5044593;28;20198;-72
2023/01/22 10:40:36;;;;;;;9.87;4.00;;;14.30;99.90;;;;;;5035313;28;20219;-71
2023/01/22 10:43:13;;;;;;;5.07;3.40;;;14.40;99.90;;;;;;5042880;28;20336;-72
2023/01/22 10:46:06;;;;;;;5.77;4.00;;;14.50;99.90;;;;;;5038453;28;20191;-72
2023/01/22 10:48:33;;;;;;;7.23;3.10;;;14.60;99.90;;;;;;5042907;28;20191;-72
2023/01/22 10:51:26;;;;;;;9.83;3.60;;;14.80;99.90;;;;;;5042598;28;20307;-72
2023/01/22 10:54:18;;;;;;;10.83;3.30;;;14.90;99.90;;;;;;5039530;28;20210;-72
2023/01/22 10:56:48;;;;;;;4.37;2.80;;;15.00;99.90;;;;;;5027157;28;20188;-72
2023/01/22 10:59:25;;;;;;;5.97;3.50;;;15.20;99.90;;;;;;5060018;28;20325;-72
2023/01/22 11:02:01;;;;;;;6.93;3.33;;;15.20;99.90;;;;;;5029401;28;20706;-72
2023/01/22 11:04:32;;;;;;;8.87;3.63;;;15.20;99.90;;;;;;5048870;28;20195;-72
2023/01/22 11:07:18;;;;;;;7.53;3.20;;;15.10;99.90;;;;;;5044911;28;20242;-72
2023/01/22 11:10:16;;;;;;;5.87;3.17;;;15.10;99.90;;;;;;5037678;28;20283;-72
2023/01/22 11:12:56;;;;;;;6.13;3.40;;;15.30;99.90;;;;;;5045872;28;20194;-72
2023/01/22 11:16:20;;;;;;;9.97;4.10;;;15.50;99.90;;;;;;5043981;28;20196;-72
2023/01/22 11:18:59;;;;;;;5.90;3.83;;;15.60;99.90;;;;;;5043049;28;20288;-72
2023/01/22 11:21:51;;;;;;;6.93;3.93;;;15.90;99.90;;;;;;5046813;28;20297;-72
2023/01/22 11:24:45;;;;;;;6.47;3.47;;;16.10;99.90;;;;;;5046968;28;20199;-72
2023/01/22 11:27:43;;;;;;;7.47;3.90;;;16.20;99.90;;;;;;5063459;28;20621;-72
2023/01/22 11:31:00;;;;;;;9.63;4.13;;;16.20;99.90;;;;;;5046642;28;20812;-72
2023/01/22 11:34:08;;;;;;;10.03;3.80;;;16.10;99.90;;;;;;4967114;28;20194;-72
2023/01/22 11:36:56;;;;;;;7.40;4.30;;;16.20;99.90;;;;;;5036829;28;20253;-72
2023/01/22 11:39:51;;;;;;;6.77;4.00;;;16.10;99.90;;;;;;5025908;28;20194;-72
2023/01/22 11:43:08;;;;;;;6.27;3.83;;;16.10;99.90;;;;;;5044404;28;20215;-72
2023/01/22 11:45:56;;;;;;;7.43;4.00;;;16.10;99.90;;;;;;5041159;28;20222;-72
2023/01/22 11:48:45;;;;;;;4.73;3.73;;;16.10;99.90;;;;;;5054652;28;20700;-72
2023/01/22 11:51:20;;;;;;;9.13;4.00;;;16.20;99.90;;;;;;5042126;28;20263;-72
2023/01/22 11:54:14;;;;;;;6.33;3.70;;;16.30;99.90;;;;;;5032240;28;20828;-72
2023/01/22 11:56:59;;;;;;;9.80;4.20;;;16.30;99.90;;;;;;5026385;28;20218;-72
2023/01/22 11:59:52;;;;;;;5.93;3.87;;;16.30;99.90;;;;;;5044366;28;20506;-72
2023/01/22 12:02:27;;;;;;;10.93;4.30;;;16.30;99.90;;;;;;5027406;28;20454;-72
2023/01/22 12:05:12;;;;;;;11.10;4.40;;;16.20;99.90;;;;;;5040781;28;20199;-72
2023/01/22 12:08:16;;;;;;;9.03;4.30;;;16.20;99.90;;;;;;5030887;28;20214;-72
2023/01/22 12:10:48;;;;;;;9.87;4.67;;;16.30;99.90;;;;;;5034420;28;20237;-72
2023/01/22 12:13:49;;;;;;;7.13;4.60;;;16.30;99.90;;;;;;5045486;28;20841;-72
2023/01/22 12:16:30;;;;;;;5.80;4.37;;;16.30;99.90;;;;;;5042792;28;20672;-73
2023/01/22 12:19:18;;;;;;;8.37;4.23;;;16.30;99.90;;;;;;5044614;28;20268;-72
2023/01/22 12:22:36;;;;;;;8.23;4.13;;;16.30;99.90;;;;;;5040488;28;20883;-72
2023/01/22 12:25:27;;;;;;;6.50;4.23;;;16.30;99.90;;;;;;5038506;28;20225;-72
2023/01/22 12:28:37;;;;;;;7.90;4.23;;;16.30;99.90;;;;;;5043082;28;20610;-72
2023/01/22 12:31:42;;;;;;;7.13;4.43;;;16.30;99.90;;;;;;5015670;28;20188;-72
2023/01/22 12:34:55;;;;;;;7.80;4.13;;;16.30;99.90;;;;;;5033985;28;20726;-72
2023/01/22 12:37:33;;;;;;;7.30;4.07;;;16.20;99.90;;;;;;5033921;28;20746;-73
2023/01/22 12:40:30;;;;;;;8.77;4.50;;;16.20;99.90;;;;;;5055487;28;20281;-72
2023/01/22 12:43:02;;;;;;;8.27;4.37;;;16.10;99.90;;;;;;5036081;28;20203;-72
2023/01/22 12:46:05;;;;;;;10.80;4.40;;;16.10;99.90;;;;;;5024823;28;20196;-72
2023/01/22 12:49:15;;;;;;;8.60;4.37;;;16.10;99.90;;;;;;5043871;28;20286;-72
2023/01/22 12:51:53;;;;;;;6.40;4.20;;;16.10;99.90;;;;;;5055037;28;20188;-73
2023/01/22 12:54:35;;;;;;;12.37;4.50;;;16.10;99.90;;;;;;5044189;28;20195;-73
2023/01/22 12:57:13;;;;;;;10.10;4.10;;;16.10;99.90;;;;;;5042984;28;20698;-72
2023/01/22 12:59:50;;;;;;;7.23;4.47;;;16.10;99.90;;;;;;5036269;28;20318;-72
2023/01/22 13:02:36;;;;;;;10.83;4.50;;;16.00;99.90;;;;;;5039938;28;22385;-72
2023/01/22 13:05:32;;;;;;;7.40;4.77;;;16.00;99.90;;;;;;5052317;28;20195;-72
2023/01/22 13:08:20;;;;;;;8.47;5.00;;;16.00;99.90;;;;;;5026714;28;20685;-72
2023/01/22 13:10:57;;;;;;;9.87;4.37;;;16.00;99.90;;;;;;5038279;28;20192;-72
2023/01/22 13:13:28;;;;;;;12.30;4.73;;;15.90;99.90;;;;;;5019942;28;20291;-72
2023/01/22 13:16:04;;;;;;;8.03;4.33;;;15.90;99.90;;;;;;5057775;28;20192;-72
2023/01/22 13:18:40;;;;;;;6.87;4.00;;;15.80;99.90;;;;;;5033484;28;20674;-72
2023/01/22 13:21:16;;;;;;;8.93;4.10;;;15.80;99.90;;;;;;5042451;28;20766;-72
2023/01/22 13:23:48;;;;;;;14.53;4.27;;;15.80;99.90;;;;;;4998708;28;20385;-72
2023/01/22 13:26:25;;;;;;;10.97;4.20;;;15.80;99.90;;;;;;5037702;28;20676;-72